Terminal Aerodrome Forecast
Issued by NWS

Home | Current Version | Previous Version | Text Only | Print | Product List | Glossary Off
Versions: 1 2 3 4 5 6 7 8 9 10 11 12

000
FTUS43 KICT 260520
TAFHUT
TAF
KHUT 260520Z 2606/2706 36010KT P6SM SCT250
     FM260800 05007KT P6SM SCT250
     FM261400 36012KT P6SM SCT250
     FM270000 04006KT P6SM SKC=

USA.gov is the U.S. government's official web portal to all federal, state and local government web resources and services.